Dai11kosyumaru — JL6131 — position and weather

sailwx.info

Track history (hours):
 
Tides and Currents Weather Stations Pressure Air Temp Water Temp Dewpoint Dewpoint Depression Visibility Wind Speed Wind Dir Waves Ship Positions

Dai11kosyumaru

Last reported at 2017-Sep-23 23:29 UTC. Time now 2017-Sep-23 23:46 UTC.
Position N 34°34' E 135°26'.

Length 65 m; draft 4 m.

MMSI: 431500038.

Date/timePositionNaut miles runAvg speedWind from/ knotsBaromVisibWave heightAir tempDewpointWater temp
2017-Sep-23 23:29N 34°34' E 135°26'0 0.0
2017-Sep-23 23:00N 34°34' E 135°26'1 2.9
2017-Sep-23 22:30N 34°36' E 135°25'2 3.7
2017-Sep-23 22:00N 34°36' E 135°23'0 0.1
2017-Sep-23 21:30N 34°36' E 135°23'0 0.0
2017-Sep-23 21:00N 34°36' E 135°23'0 0.1
2017-Sep-23 20:30N 34°36' E 135°23'0 0.1
2017-Sep-23 19:59N 34°36' E 135°23'0 0.0
2017-Sep-22 02:00N 34°36' E 135°23'0 0.1
2017-Sep-22 01:29N 34°36' E 135°23'0 0.1
2017-Sep-22 00:59N 34°36' E 135°23'0 0.0
2017-Sep-22 00:27N 34°36' E 135°23'0 0.1
2017-Sep-22 00:00N 34°36' E 135°23'0 0.0
2017-Sep-21 23:29N 34°36' E 135°23'0 0.0
2017-Sep-21 22:59N 34°36' E 135°23'0 0.1
2017-Sep-21 22:25N 34°36' E 135°23'0 0.1
2017-Sep-21 22:00N 34°36' E 135°23'0 0.1
2017-Sep-21 21:30N 34°36' E 135°23'0 0.0
2017-Sep-21 21:00N 34°36' E 135°23'0 0.0
2017-Sep-21 20:30N 34°36' E 135°23'0 0.0
2017-Sep-21 19:59N 34°36' E 135°23'0 0.0
2017-Sep-21 19:29N 34°36' E 135°23'0 0.1
2017-Sep-21 19:00N 34°36' E 135°23'0 0.0
2017-Sep-21 18:30N 34°36' E 135°23'0 0.0
2017-Sep-21 18:00N 34°36' E 135°23'0 0.0
2017-Sep-21 17:30N 34°36' E 135°23'0 0.0
2017-Sep-21 17:00N 34°36' E 135°23'0 0.0
2017-Sep-21 16:30N 34°36' E 135°23'0 0.0
2017-Sep-21 16:00N 34°36' E 135°23'0 0.0
2017-Sep-21 15:30N 34°36' E 135°23'0 0.0
2017-Sep-21 15:00N 34°36' E 135°23'0 0.0
2017-Sep-21 14:30N 34°36' E 135°23'0 0.0
2017-Sep-21 14:00N 34°36' E 135°23'0 0.0
2017-Sep-21 13:30N 34°36' E 135°23'0 0.0
2017-Sep-21 13:00N 34°36' E 135°23'0 0.0
2017-Sep-21 12:30N 34°36' E 135°23'0 0.0
2017-Sep-21 12:00N 34°36' E 135°23'0 0.0
2017-Sep-21 11:30N 34°36' E 135°23'0 0.0
2017-Sep-21 10:59N 34°36' E 135°23'0 0.0
2017-Sep-21 10:30N 34°36' E 135°23'0 0.0
2017-Sep-21 10:00N 34°36' E 135°23'0 0.0
2017-Sep-21 09:29N 34°36' E 135°23'0 0.1
2017-Sep-21 09:00N 34°36' E 135°23'0 0.0
2017-Sep-21 08:30N 34°36' E 135°23'0 0.0
2017-Sep-21 07:57N 34°36' E 135°23'0 0.0
2017-Sep-21 07:29N 34°36' E 135°23'0 0.0
2017-Sep-21 07:00N 34°36' E 135°23'0 0.0
2017-Sep-21 06:23N 34°36' E 135°23'0 0.0
2017-Sep-21 05:46N 34°36' E 135°23'0 1.1
2017-Sep-21 05:30N 34°36' E 135°23'510.9
2017-Sep-21 05:00N 34°32' E 135°18'610.9
2017-Sep-21 04:25N 34°28' E 135°12'218 4.7
2017-Sep-19 05:53N 35°04' E 139°33'410.2
2017-Sep-19 05:30N 35°06' E 139°38'510.6
2017-Sep-19 05:00N 35°09' E 139°43'510.6
2017-Sep-19 04:30N 35°13' E 139°46'5 9.8
2017-Sep-19 04:00N 35°18' E 139°44'510.4
2017-Sep-19 03:30N 35°23' E 139°42'510.8
2017-Sep-19 03:00N 35°27' E 139°47'611.4
2017-Sep-19 02:30N 35°31' E 139°52'6 2.7
2017-Sep-19 00:29N 35°35' E 139°55'0 0.0
2017-Sep-19 00:00N 35°35' E 139°55'0 0.0
2017-Sep-18 11:47N 35°35' E 139°55'0 0.0
2017-Sep-18 11:15N 35°35' E 139°55'0 0.0
2017-Sep-18 10:54N 35°35' E 139°55'0 0.0
2017-Sep-18 10:27N 35°35' E 139°55'0 0.1
2017-Sep-18 09:41N 35°35' E 139°55'0 0.1
2017-Sep-18 09:30N 35°35' E 139°55'0 0.0
2017-Sep-18 09:00N 35°35' E 139°55'0 0.0
2017-Sep-18 08:30N 35°35' E 139°55'0 0.0
2017-Sep-18 08:01N 35°35' E 139°55'0 0.0
2017-Sep-18 07:30N 35°35' E 139°55'0 0.0
2017-Sep-18 06:48N 35°35' E 139°55'0 0.0
2017-Sep-18 06:29N 35°35' E 139°55'0 0.0
2017-Sep-18 05:57N 35°35' E 139°55'0 0.0
2017-Sep-18 05:30N 35°35' E 139°55'0 0.0
2017-Sep-17 14:48N 35°35' E 139°55'0 0.0
2017-Sep-17 14:30N 35°35' E 139°55'0 0.0
2017-Sep-17 13:56N 35°35' E 139°55'0 0.0
2017-Sep-17 11:26N 35°35' E 139°55'0 0.0
2017-Sep-17 10:59N 35°35' E 139°55'0 0.0
2017-Sep-17 08:09N 35°35' E 139°55'0 0.0
2017-Sep-17 07:59N 35°35' E 139°55'0 0.0
2017-Sep-17 07:30N 35°35' E 139°55'0 0.0
2017-Sep-17 07:00N 35°35' E 139°55'0 0.1
2017-Sep-17 05:55N 35°35' E 139°55'9 9.2
2017-Sep-17 04:58N 35°33' E 140°05'0 0.0
2017-Sep-17 04:30N 35°33' E 140°05'0 0.0
2017-Sep-17 04:00N 35°33' E 140°05'0 0.0
2017-Sep-17 03:30N 35°33' E 140°05'0 0.0
2017-Sep-17 02:46N 35°33' E 140°05'0 0.0
2017-Sep-17 02:30N 35°33' E 140°05'0 0.0
2017-Sep-17 02:00N 35°33' E 140°05'0 0.0
2017-Sep-17 01:29N 35°33' E 140°05'0 0.0
2017-Sep-17 01:00N 35°33' E 140°05'0 0.0
2017-Sep-17 00:29N 35°33' E 140°05'0 0.0
2017-Sep-16 03:32N 35°33' E 140°05'0 0.0
2017-Sep-16 03:14N 35°33' E 140°05'0 0.0
2017-Sep-16 02:49N 35°33' E 140°05'0 0.0
2017-Sep-16 02:30N 35°33' E 140°05'0 0.0
2017-Sep-16 01:57N 35°33' E 140°05'0 0.0
2017-Sep-16 01:29N 35°33' E 140°05'0 0.0
2017-Sep-16 00:53N 35°33' E 140°05'0 0.0
2017-Sep-16 00:30N 35°33' E 140°05'9 6.4
2017-Sep-15 23:03N 35°30' E 139°54'110.3
2017-Sep-15 22:58N 35°30' E 139°53'510.1
2017-Sep-15 22:30N 35°26' E 139°49'5 9.9
2017-Sep-15 22:00N 35°22' E 139°45'5 9.5
2017-Sep-15 21:30N 35°18' E 139°45'5 9.5
2017-Sep-15 21:00N 35°13' E 139°47'5 9.8
2017-Sep-15 20:30N 35°08' E 139°45'510.7
2017-Sep-15 20:00N 35°04' E 139°42'510.9
2017-Sep-15 19:30N 35°01' E 139°37'  
Track history (hours):
 
Tides and Currents Weather Stations Pressure Air Temp Water Temp Dewpoint Dewpoint Depression Visibility Wind Speed Wind Dir Waves Ship Positions

Dai11kosyumaru

Last reported at 2017-Sep-23 23:29 UTC. Time now 2017-Sep-23 23:46 UTC.
Position N 34°34' E 135°26'.

Length 65 m; draft 4 m.

MMSI: 431500038.

Date/timePositionNaut miles runAvg speedWind from/ knotsBaromVisibWave heightAir tempDewpointWater temp
2017-Sep-23 23:29N 34°34' E 135°26'0 0.0
2017-Sep-23 23:00N 34°34' E 135°26'1 2.9
2017-Sep-23 22:30N 34°36' E 135°25'2 3.7
2017-Sep-23 22:00N 34°36' E 135°23'0 0.1
2017-Sep-23 21:30N 34°36' E 135°23'0 0.0
2017-Sep-23 21:00N 34°36' E 135°23'0 0.1
2017-Sep-23 20:30N 34°36' E 135°23'0 0.1
2017-Sep-23 19:59N 34°36' E 135°23'0 0.0
2017-Sep-22 02:00N 34°36' E 135°23'0 0.1
2017-Sep-22 01:29N 34°36' E 135°23'0 0.1
2017-Sep-22 00:59N 34°36' E 135°23'0 0.0
2017-Sep-22 00:27N 34°36' E 135°23'0 0.1
2017-Sep-22 00:00N 34°36' E 135°23'0 0.0
2017-Sep-21 23:29N 34°36' E 135°23'0 0.0
2017-Sep-21 22:59N 34°36' E 135°23'0 0.1
2017-Sep-21 22:25N 34°36' E 135°23'0 0.1
2017-Sep-21 22:00N 34°36' E 135°23'0 0.1
2017-Sep-21 21:30N 34°36' E 135°23'0 0.0
2017-Sep-21 21:00N 34°36' E 135°23'0 0.0
2017-Sep-21 20:30N 34°36' E 135°23'0 0.0
2017-Sep-21 19:59N 34°36' E 135°23'0 0.0
2017-Sep-21 19:29N 34°36' E 135°23'0 0.1
2017-Sep-21 19:00N 34°36' E 135°23'0 0.0
2017-Sep-21 18:30N 34°36' E 135°23'0 0.0
2017-Sep-21 18:00N 34°36' E 135°23'0 0.0
2017-Sep-21 17:30N 34°36' E 135°23'0 0.0
2017-Sep-21 17:00N 34°36' E 135°23'0 0.0
2017-Sep-21 16:30N 34°36' E 135°23'0 0.0
2017-Sep-21 16:00N 34°36' E 135°23'0 0.0
2017-Sep-21 15:30N 34°36' E 135°23'0 0.0
2017-Sep-21 15:00N 34°36' E 135°23'0 0.0
2017-Sep-21 14:30N 34°36' E 135°23'0 0.0
2017-Sep-21 14:00N 34°36' E 135°23'0 0.0
2017-Sep-21 13:30N 34°36' E 135°23'0 0.0
2017-Sep-21 13:00N 34°36' E 135°23'0 0.0
2017-Sep-21 12:30N 34°36' E 135°23'0 0.0
2017-Sep-21 12:00N 34°36' E 135°23'0 0.0
2017-Sep-21 11:30N 34°36' E 135°23'0 0.0
2017-Sep-21 10:59N 34°36' E 135°23'0 0.0
2017-Sep-21 10:30N 34°36' E 135°23'0 0.0
2017-Sep-21 10:00N 34°36' E 135°23'0 0.0
2017-Sep-21 09:29N 34°36' E 135°23'0 0.1
2017-Sep-21 09:00N 34°36' E 135°23'0 0.0
2017-Sep-21 08:30N 34°36' E 135°23'0 0.0
2017-Sep-21 07:57N 34°36' E 135°23'0 0.0
2017-Sep-21 07:29N 34°36' E 135°23'0 0.0
2017-Sep-21 07:00N 34°36' E 135°23'0 0.0
2017-Sep-21 06:23N 34°36' E 135°23'0 0.0
2017-Sep-21 05:46N 34°36' E 135°23'0 1.1
2017-Sep-21 05:30N 34°36' E 135°23'510.9
2017-Sep-21 05:00N 34°32' E 135°18'610.9
2017-Sep-21 04:25N 34°28' E 135°12'218 4.7
2017-Sep-19 05:53N 35°04' E 139°33'410.2
2017-Sep-19 05:30N 35°06' E 139°38'510.6
2017-Sep-19 05:00N 35°09' E 139°43'510.6
2017-Sep-19 04:30N 35°13' E 139°46'5 9.8
2017-Sep-19 04:00N 35°18' E 139°44'510.4
2017-Sep-19 03:30N 35°23' E 139°42'510.8
2017-Sep-19 03:00N 35°27' E 139°47'611.4
2017-Sep-19 02:30N 35°31' E 139°52'6 2.7
2017-Sep-19 00:29N 35°35' E 139°55'0 0.0
2017-Sep-19 00:00N 35°35' E 139°55'0 0.0
2017-Sep-18 11:47N 35°35' E 139°55'0 0.0
2017-Sep-18 11:15N 35°35' E 139°55'0 0.0
2017-Sep-18 10:54N 35°35' E 139°55'0 0.0
2017-Sep-18 10:27N 35°35' E 139°55'0 0.1
2017-Sep-18 09:41N 35°35' E 139°55'0 0.1
2017-Sep-18 09:30N 35°35' E 139°55'0 0.0
2017-Sep-18 09:00N 35°35' E 139°55'0 0.0
2017-Sep-18 08:30N 35°35' E 139°55'0 0.0
2017-Sep-18 08:01N 35°35' E 139°55'0 0.0
2017-Sep-18 07:30N 35°35' E 139°55'0 0.0
2017-Sep-18 06:48N 35°35' E 139°55'0 0.0
2017-Sep-18 06:29N 35°35' E 139°55'0 0.0
2017-Sep-18 05:57N 35°35' E 139°55'0 0.0
2017-Sep-18 05:30N 35°35' E 139°55'0 0.0
2017-Sep-17 14:48N 35°35' E 139°55'0 0.0
2017-Sep-17 14:30N 35°35' E 139°55'0 0.0
2017-Sep-17 13:56N 35°35' E 139°55'0 0.0
2017-Sep-17 11:26N 35°35' E 139°55'0 0.0
2017-Sep-17 10:59N 35°35' E 139°55'0 0.0
2017-Sep-17 08:09N 35°35' E 139°55'0 0.0
2017-Sep-17 07:59N 35°35' E 139°55'0 0.0
2017-Sep-17 07:30N 35°35' E 139°55'0 0.0
2017-Sep-17 07:00N 35°35' E 139°55'0 0.1
2017-Sep-17 05:55N 35°35' E 139°55'9 9.2
2017-Sep-17 04:58N 35°33' E 140°05'0 0.0
2017-Sep-17 04:30N 35°33' E 140°05'0 0.0
2017-Sep-17 04:00N 35°33' E 140°05'0 0.0
2017-Sep-17 03:30N 35°33' E 140°05'0 0.0
2017-Sep-17 02:46N 35°33' E 140°05'0 0.0
2017-Sep-17 02:30N 35°33' E 140°05'0 0.0
2017-Sep-17 02:00N 35°33' E 140°05'0 0.0
2017-Sep-17 01:29N 35°33' E 140°05'0 0.0
2017-Sep-17 01:00N 35°33' E 140°05'0 0.0
2017-Sep-17 00:29N 35°33' E 140°05'0 0.0
2017-Sep-16 03:32N 35°33' E 140°05'0 0.0
2017-Sep-16 03:14N 35°33' E 140°05'0 0.0
2017-Sep-16 02:49N 35°33' E 140°05'0 0.0
2017-Sep-16 02:30N 35°33' E 140°05'0 0.0
2017-Sep-16 01:57N 35°33' E 140°05'0 0.0
2017-Sep-16 01:29N 35°33' E 140°05'0 0.0
2017-Sep-16 00:53N 35°33' E 140°05'0 0.0
2017-Sep-16 00:30N 35°33' E 140°05'9 6.4
2017-Sep-15 23:03N 35°30' E 139°54'110.3
2017-Sep-15 22:58N 35°30' E 139°53'510.1
2017-Sep-15 22:30N 35°26' E 139°49'5 9.9
2017-Sep-15 22:00N 35°22' E 139°45'5 9.5
2017-Sep-15 21:30N 35°18' E 139°45'5 9.5
2017-Sep-15 21:00N 35°13' E 139°47'5 9.8
2017-Sep-15 20:30N 35°08' E 139°45'510.7
2017-Sep-15 20:00N 35°04' E 139°42'510.9
2017-Sep-15 19:30N 35°01' E 139°37'  

Dump ship's entire track history